Time;durP1;ratioP1;P1;durP2;ratioP2;P2;SDS_P1;SDS_P2;PMS_P1;PMS_P2;Temp;Humidity;BMP_temperature;BMP_pressure;BME280_temperature;BME280_humidity;BME280_pressure;Samples;Min_cycle;Max_cycle;Signal;HPM_P1;HPM_P2
2022/08/02 00:00:20;;;;;;;7.07;1.17;;;;;;;19.83;41.50;93811.22;5125980;28;20310;-76
2022/08/02 00:02:46;;;;;;;5.22;1.63;;;;;;;19.86;41.70;93805.03;5126122;28;20385;-76
2022/08/02 00:05:12;;;;;;;5.10;2.47;;;;;;;19.82;41.80;93810.44;5126006;28;20051;-76
2022/08/02 00:07:37;;;;;;;3.55;1.77;;;;;;;19.91;42.09;93812.81;5125530;28;20015;-76
2022/08/02 00:10:04;;;;;;;3.60;1.70;;;;;;;19.92;41.98;93808.19;5125753;28;20318;-76
2022/08/02 00:12:30;;;;;;;3.58;1.50;;;;;;;19.86;41.94;93805.03;5125756;28;20316;-76
2022/08/02 00:14:56;;;;;;;4.22;2.45;;;;;;;19.83;42.02;93801.16;5125633;28;20020;-76
2022/08/02 00:17:21;;;;;;;2.33;1.50;;;;;;;19.80;42.48;93804.63;5125370;28;20039;-76
2022/08/02 00:19:47;;;;;;;3.35;1.52;;;;;;;19.86;42.30;93801.56;5125469;28;20019;-76
2022/08/02 00:22:12;;;;;;;3.33;1.70;;;;;;;19.89;42.35;93801.59;5125831;28;20015;-76
2022/08/02 00:24:38;;;;;;;4.07;1.42;;;;;;;19.93;42.28;93790.81;5125487;28;20034;-76
2022/08/02 00:27:03;;;;;;;3.72;1.80;;;;;;;19.94;42.83;93800.47;5125220;28;20023;-76
2022/08/02 00:29:30;;;;;;;7.90;1.58;;;;;;;19.92;42.71;93803.53;5125398;28;20035;-76
2022/08/02 00:31:56;;;;;;;6.05;1.63;;;;;;;19.89;42.60;93792.72;5125434;28;20135;-76
2022/08/02 00:34:22;;;;;;;3.05;1.42;;;;;;;19.89;42.94;93795.41;5125103;28;20023;-76
2022/08/02 00:36:48;;;;;;;9.38;2.13;;;;;;;19.84;42.33;93791.91;5125164;28;20187;-76
2022/08/02 00:39:13;;;;;;;3.63;1.88;;;;;;;19.90;42.22;93794.25;5124050;28;20082;-76
2022/08/02 00:41:50;;;;;;;6.63;1.63;;;;;;;19.84;42.49;93789.22;5125214;28;20173;-76
2022/08/02 00:44:17;;;;;;;3.10;1.52;;;;;;;19.83;41.95;93793.03;5125472;28;20256;-76
2022/08/02 00:46:43;;;;;;;5.18;1.25;;;;;;;19.88;42.25;93788.44;5124914;28;20317;-76
2022/08/02 00:49:10;;;;;;;4.28;1.27;;;;;;;19.92;42.13;93792.72;5124854;28;20027;-76
2022/08/02 00:51:36;;;;;;;2.47;1.10;;;;;;;19.93;41.85;93788.13;5124996;28;20016;-76
2022/08/02 00:54:02;;;;;;;4.57;1.50;;;;;;;19.97;41.53;93792.41;5124868;28;20056;-76
2022/08/02 00:56:27;;;;;;;11.95;1.35;;;;;;;19.96;41.30;93785.41;5124782;28;20020;-76
2022/08/02 00:58:53;;;;;;;3.67;1.63;;;;;;;19.93;41.00;93786.19;5124530;28;20019;-76
2022/08/02 01:01:18;;;;;;;2.35;1.40;;;;;;;19.98;40.68;93783.13;5124780;28;20122;-76
2022/08/02 01:03:44;;;;;;;2.97;1.60;;;;;;;20.03;40.21;93780.06;5124821;28;20350;-76
2022/08/02 01:06:09;;;;;;;2.05;1.08;;;;;;;20.03;39.96;93774.66;5124631;28;20037;-75
2022/08/02 01:08:37;;;;;;;2.20;1.58;;;;;;;20.04;39.79;93783.56;5124331;27;20031;-76
2022/08/02 01:11:03;;;;;;;6.18;1.77;;;;;;;20.08;40.04;93770.06;5124664;28;20198;-76
2022/08/02 01:13:28;;;;;;;1.92;1.20;;;;;;;20.07;39.65;93777.41;5124459;28;20043;-76
2022/08/02 01:16:01;;;;;;;2.75;1.23;;;;;;;20.07;39.99;93774.69;5124512;28;20015;-76
2022/08/02 01:18:37;;;;;;;3.53;1.80;;;;;;;20.14;40.50;93777.44;5124131;28;20274;-76
2022/08/02 01:21:58;;;;;;;3.58;1.55;;;;;;;20.15;40.07;93776.31;5124482;28;20054;-76
2022/08/02 01:24:54;;;;;;;3.55;1.67;;;;;;;20.16;40.00;93771.66;5102147;28;20314;-76
2022/08/02 01:27:56;;;;;;;2.45;1.35;;;;;;;20.12;39.84;93776.28;5101869;28;20024;-76
2022/08/02 01:30:21;;;;;;;7.18;1.65;;;;;;;20.15;39.84;93776.31;5124165;28;20277;-76
2022/08/02 01:32:52;;;;;;;3.33;1.45;;;;;;;20.15;39.76;93789.03;5124089;28;20020;-76
2022/08/02 01:35:27;;;;;;;1.60;1.10;;;;;;;20.22;40.10;93776.34;5124219;28;20222;-76
2022/08/02 01:37:57;;;;;;;6.35;2.03;;;;;;;20.24;43.21;93784.09;5124048;28;20030;-76
2022/08/02 01:40:30;;;;;;;3.08;1.95;;;;;;;20.19;45.37;93779.81;5123954;27;20243;-76
2022/08/02 01:42:57;;;;;;;11.07;2.25;;;;;;;20.08;47.17;93775.47;5124087;28;20023;-76
2022/08/02 01:45:29;;;;;;;5.05;2.10;;;;;;;19.98;47.94;93785.81;5123845;28;20064;-76
2022/08/02 01:47:56;;;;;;;7.10;2.13;;;;;;;19.86;48.58;93785.34;5123663;28;20086;-76
2022/08/02 01:50:28;;;;;;;5.93;1.95;;;;;;;19.75;49.14;93779.84;5123718;28;20023;-76
2022/08/02 01:52:56;;;;;;;6.10;2.30;;;;;;;19.65;49.76;93775.84;5123915;28;20054;-76
2022/08/02 01:55:27;;;;;;;4.20;2.17;;;;;;;19.54;49.91;93799.28;5123758;28;20023;-76
2022/08/02 01:57:57;;;;;;;3.67;1.80;;;;;;;19.40;50.51;93783.72;5123570;28;20027;-76
2022/08/02 02:00:25;;;;;;;4.55;1.77;;;;;;;19.28;50.58;93795.56;5123722;28;20015;-76
2022/08/02 02:02:54;;;;;;;3.65;1.63;;;;;;;19.18;50.99;93798.94;5123719;28;20187;-76
2022/08/02 02:05:23;;;;;;;4.55;1.92;;;;;;;19.09;50.89;93793.81;5123745;28;20380;-76
2022/08/02 02:07:52;;;;;;;7.72;1.92;;;;;;;18.98;50.45;93796.38;5123591;28;20026;-76
2022/08/02 02:10:26;;;;;;;5.20;1.73;;;;;;;18.89;50.22;93789.69;5123634;28;20341;-76
2022/08/02 02:12:53;;;;;;;2.88;1.60;;;;;;;18.79;50.62;93791.13;5122204;28;20344;-76
2022/08/02 02:15:20;;;;;;;3.08;1.75;;;;;;;18.72;50.58;93785.59;5123541;28;20080;-76
2022/08/02 02:17:48;;;;;;;4.97;1.63;;;;;;;18.68;51.14;93795.59;5123381;28;20261;-76
2022/08/02 02:20:17;;;;;;;4.63;1.60;;;;;;;18.62;51.23;93793.22;5123325;28;20322;-76
2022/08/02 02:22:43;;;;;;;4.43;1.92;;;;;;;18.54;51.49;93790.75;5123274;28;20051;-76
2022/08/02 02:25:10;;;;;;;3.15;1.55;;;;;;;18.45;51.29;93782.94;5123221;28;20077;-76
2022/08/02 02:27:38;;;;;;;4.82;1.55;;;;;;;18.37;51.94;93789.38;5123221;28;20095;-75
2022/08/02 02:30:05;;;;;;;4.50;1.58;;;;;;;18.34;52.05;93784.69;5123178;28;20054;-75
2022/08/02 02:32:33;;;;;;;3.55;1.60;;;;;;;18.28;51.96;93795.03;5123208;28;20019;-75
2022/08/02 02:35:02;;;;;;;5.80;1.63;;;;;;;18.20;52.39;93794.16;5123173;28;20028;-75
2022/08/02 02:37:29;;;;;;;6.97;3.03;;;;;;;18.11;52.87;93788.22;5123079;28;20020;-75
2022/08/02 02:39:56;;;;;;;6.10;2.05;;;;;;;18.06;53.08;93787.78;5122994;28;20018;-75
2022/08/02 02:42:28;;;;;;;3.67;1.73;;;;;;;18.02;53.23;93793.09;5123068;28;20019;-75
2022/08/02 02:44:55;;;;;;;6.07;1.98;;;;;;;17.98;54.50;93795.75;5123031;28;20027;-75
2022/08/02 02:47:22;;;;;;;4.82;1.95;;;;;;;17.90;54.33;93782.50;5123176;28;20031;-75
2022/08/02 02:49:49;;;;;;;3.78;1.90;;;;;;;17.82;53.84;93785.03;5121881;28;20023;-75
2022/08/02 02:52:16;;;;;;;3.25;1.60;;;;;;;17.78;53.24;93781.50;5123006;28;20261;-75
2022/08/02 02:54:44;;;;;;;2.55;1.38;;;;;;;17.70;53.88;93782.53;5123080;28;20258;-75
2022/08/02 02:57:10;;;;;;;4.13;1.80;;;;;;;17.62;53.75;93786.25;5122709;28;20317;-76
2022/08/02 02:59:38;;;;;;;5.50;1.55;;;;;;;17.54;54.74;93788.03;5122806;28;20041;-76
2022/08/02 03:02:05;;;;;;;4.13;2.08;;;;;;;17.49;55.02;93782.19;5124690;28;20149;-76
2022/08/02 03:04:31;;;;;;;3.00;1.95;;;;;;;17.47;55.32;93789.84;5126786;28;20023;-76
2022/08/02 03:06:56;;;;;;;4.70;1.95;;;;;;;17.40;55.20;93790.47;5126887;28;20054;-76
2022/08/02 03:09:22;;;;;;;5.85;1.95;;;;;;;17.34;55.50;93787.31;5127098;28;20028;-76
2022/08/02 03:11:48;;;;;;;4.65;1.90;;;;;;;17.32;56.17;93778.81;5127051;28;20382;-76
2022/08/02 03:14:14;;;;;;;3.95;1.80;;;;;;;17.32;56.40;93796.88;5126685;28;20054;-75
2022/08/02 03:16:47;;;;;;;4.80;2.30;;;;;;;17.32;56.43;93794.19;5126685;28;20054;-75
2022/08/02 03:19:13;;;;;;;3.70;2.13;;;;;;;17.23;56.59;93791.72;5126919;28;20031;-75
2022/08/02 03:21:41;;;;;;;4.65;2.05;;;;;;;17.17;56.96;93790.44;5126784;28;20022;-75
2022/08/02 03:24:06;;;;;;;13.15;2.08;;;;;;;17.16;57.24;93788.91;5126576;28;20031;-75
2022/08/02 03:26:32;;;;;;;6.47;1.90;;;;;;;17.05;57.31;93797.53;5126477;28;20020;-75
2022/08/02 03:28:57;;;;;;;5.43;1.80;;;;;;;17.10;57.83;93790.34;5126532;28;20281;-75
2022/08/02 03:31:23;;;;;;;4.60;2.00;;;;;;;17.12;57.70;93790.75;5126678;28;20321;-75
2022/08/02 03:33:48;;;;;;;3.92;2.25;;;;;;;17.10;57.66;93793.78;5126661;28;20043;-75
2022/08/02 03:36:18;;;;;;;3.47;1.88;;;;;;;17.07;57.63;93793.72;5126350;28;20382;-75
2022/08/02 03:38:44;;;;;;;3.45;1.80;;;;;;;17.03;58.18;93797.09;5126379;28;20012;-75
2022/08/02 03:41:12;;;;;;;6.20;2.08;;;;;;;17.02;58.04;93800.19;5126238;28;20019;-76
2022/08/02 03:43:39;;;;;;;4.18;2.03;;;;;;;17.03;58.33;93797.09;5126354;27;20023;-76
2022/08/02 03:46:08;;;;;;;7.93;2.30;;;;;;;17.08;58.30;93798.00;5126005;28;20016;-75
2022/08/02 03:48:35;;;;;;;6.72;2.05;;;;;;;17.05;58.33;93797.53;5126054;28;20019;-75
2022/08/02 03:51:01;;;;;;;7.95;1.85;;;;;;;17.07;58.47;93804.50;5126352;28;20247;-76
2022/08/02 03:53:27;;;;;;;6.25;2.00;;;;;;;17.06;58.57;93801.03;5126030;28;20094;-76
2022/08/02 03:55:53;;;;;;;5.20;2.30;;;;;;;17.03;58.58;93807.88;5126146;28;20028;-76
2022/08/02 03:58:20;;;;;;;5.18;2.40;;;;;;;17.09;58.53;93813.00;5126042;28;20217;-76
2022/08/02 04:00:46;;;;;;;4.65;2.30;;;;;;;17.11;58.50;93816.09;5125873;28;20031;-76
2022/08/02 04:03:12;;;;;;;7.43;2.05;;;;;;;17.12;58.68;93820.38;5125985;27;20137;-76
2022/08/02 04:05:38;;;;;;;5.90;2.03;;;;;;;17.14;58.84;93816.19;5125810;28;20016;-76
2022/08/02 04:08:04;;;;;;;6.47;2.28;;;;;;;17.17;58.26;93826.22;5125466;28;20336;-76
2022/08/02 04:10:29;;;;;;;6.25;2.42;;;;;;;17.22;58.21;93825.19;5125844;28;20057;-76
2022/08/02 04:12:56;;;;;;;10.88;2.90;;;;;;;17.31;57.73;93835.75;5125570;28;20170;-76
2022/08/02 04:15:22;;;;;;;5.07;2.30;;;;;;;17.36;57.80;93828.16;5125674;28;20028;-76
2022/08/02 04:17:58;;;;;;;6.22;2.58;;;;;;;17.43;57.15;93838.28;5125496;28;20349;-76
2022/08/02 04:20:28;;;;;;;4.10;2.33;;;;;;;17.47;57.08;93835.66;5125462;28;20031;-76
2022/08/02 04:23:05;;;;;;;5.57;2.42;;;;;;;17.55;56.75;93845.44;5125704;28;20101;-76
2022/08/02 04:25:32;;;;;;;7.30;2.45;;;;;;;17.60;56.98;93842.41;5125518;28;20028;-76
2022/08/02 04:27:59;;;;;;;5.18;2.42;;;;;;;17.63;57.44;93837.09;5125235;28;20028;-76
2022/08/02 04:30:26;;;;;;;5.38;2.40;;;;;;;17.70;57.03;93847.22;5125354;28;20029;-76
2022/08/02 04:32:51;;;;;;;9.73;2.65;;;;;;;17.78;56.18;93838.13;5125685;28;20019;-76
2022/08/02 04:35:17;;;;;;;11.23;2.72;;;;;;;17.87;56.33;93835.25;5125106;28;20095;-76
2022/08/02 04:37:43;;;;;;;4.60;2.50;;;;;;;17.92;55.61;93842.25;5125286;28;20068;-76
2022/08/02 04:40:10;;;;;;;8.93;2.95;;;;;;;18.00;56.32;93839.31;5125014;28;20333;-76
2022/08/02 04:42:36;;;;;;;6.28;3.00;;;;;;;18.08;55.99;93842.13;5125092;28;20024;-76
2022/08/02 04:45:02;;;;;;;9.02;2.75;;;;;;;18.10;56.20;93837.91;5125124;28;20057;-76
2022/08/02 04:47:27;;;;;;;6.75;3.10;;;;;;;18.14;56.00;93844.16;5124986;28;20023;-76
2022/08/02 04:49:53;;;;;;;8.52;3.10;;;;;;;18.14;55.40;93827.97;5125022;28;20028;-76
2022/08/02 04:52:19;;;;;;;5.35;2.20;;;;;;;18.18;55.51;93833.44;5124889;28;20027;-76
2022/08/02 04:54:44;;;;;;;5.50;2.75;;;;;;;18.25;54.44;93839.69;5124794;28;20072;-76
2022/08/02 04:59:54;;;;;;;8.43;3.38;;;;;;;18.36;54.05;93839.06;5124935;28;20042;-76
2022/08/02 05:02:20;;;;;;;6.70;3.45;;;;;;;18.34;53.41;93836.75;5123526;28;20032;-75
2022/08/02 05:04:45;;;;;;;7.13;3.15;;;;;;;18.26;54.34;93840.50;5124820;28;20224;-76
2022/08/02 05:07:11;;;;;;;5.63;3.08;;;;;;;18.21;54.31;93844.25;5124663;28;20226;-75
2022/08/02 05:09:36;;;;;;;6.65;2.85;;;;;;;18.16;54.48;93835.72;5124308;28;20044;-76
2022/08/02 05:12:05;;;;;;;14.10;3.17;;;;;;;18.17;54.80;93848.81;5124383;28;20127;-75
2022/08/02 05:14:31;;;;;;;6.72;3.40;;;;;;;18.25;55.08;93839.69;5124550;28;20016;-76
2022/08/02 05:16:56;;;;;;;10.07;3.30;;;;;;;18.29;56.23;93841.69;5124409;28;20315;-76
2022/08/02 05:19:22;;;;;;;15.27;3.60;;;;;;;18.31;56.35;93848.25;5124540;28;20015;-76
2022/08/02 05:21:47;;;;;;;18.48;3.58;;;;;;;18.37;55.42;93846.81;5124316;28;20064;-76
2022/08/02 05:24:13;;;;;;;10.10;3.28;;;;;;;18.40;56.54;93853.44;5123864;28;20068;-76
2022/08/02 05:26:38;;;;;;;7.28;3.25;;;;;;;18.40;56.45;93854.19;5124360;28;20218;-76
2022/08/02 05:29:04;;;;;;;8.98;3.53;;;;;;;18.48;56.22;93857.00;5124208;27;20039;-75
2022/08/02 05:31:30;;;;;;;7.80;2.90;;;;;;;18.49;54.62;93856.63;5124241;28;20024;-75
2022/08/02 05:33:55;;;;;;;6.70;3.20;;;;;;;18.56;54.60;93858.66;5122866;28;20081;-75
2022/08/02 05:36:21;;;;;;;14.27;3.60;;;;;;;18.68;54.20;93860.38;5123996;27;20031;-76
2022/08/02 05:38:46;;;;;;;8.30;3.28;;;;;;;18.80;51.97;93857.47;5124133;28;20099;-76
2022/08/02 05:41:12;;;;;;;5.53;2.85;;;;;;;18.94;50.95;93857.66;5124225;28;20023;-76
2022/08/02 05:43:37;;;;;;;7.90;3.40;;;;;;;19.01;50.99;93870.47;5124007;28;20028;-76
2022/08/02 05:46:03;;;;;;;10.93;3.10;;;;;;;19.09;49.64;93868.66;5124179;28;20038;-76
2022/08/02 05:48:28;;;;;;;9.60;3.25;;;;;;;19.23;50.20;93869.63;5123844;28;20098;-75
2022/08/02 05:51:01;;;;;;;5.55;2.88;;;;;;;19.38;48.95;93867.88;5124224;28;20030;-75
2022/08/02 05:53:33;;;;;;;12.57;2.63;;;;;;;19.48;48.62;93873.75;5123946;28;20019;-75
2022/08/02 05:56:27;;;;;;;10.00;2.58;;;;;;;19.67;47.60;93870.88;5124060;28;20057;-75
2022/08/02 05:59:00;;;;;;;11.80;2.67;;;;;;;19.84;48.53;93866.84;5119720;28;20309;-75
2022/08/02 06:01:37;;;;;;;5.45;1.77;;;;;;;20.01;46.26;93881.69;5123963;28;20027;-75
2022/08/02 06:04:09;;;;;;;5.32;2.08;;;;;;;20.15;45.95;93876.41;5123859;28;20023;-75
2022/08/02 06:06:35;;;;;;;8.88;2.20;;;;;;;20.21;45.95;93887.66;5123747;28;20233;-75
2022/08/02 06:09:08;;;;;;;3.63;1.85;;;;;;;20.37;43.76;93877.38;5123648;28;20260;-75
2022/08/02 06:11:37;;;;;;;3.60;1.85;;;;;;;20.35;44.28;93882.41;5123718;28;20031;-75
2022/08/02 06:14:05;;;;;;;17.05;2.75;;;;;;;20.42;44.55;93897.91;5123534;28;20091;-75
2022/08/02 06:16:30;;;;;;;3.60;1.67;;;;;;;20.53;43.34;93906.88;5123386;28;20027;-75
2022/08/02 06:18:58;;;;;;;6.30;2.08;;;;;;;20.58;42.47;93903.06;5124060;28;20019;-75
2022/08/02 06:21:25;;;;;;;5.10;1.67;;;;;;;20.53;42.15;93901.47;5123541;28;20034;-75
2022/08/02 06:23:51;;;;;;;3.58;1.35;;;;;;;20.57;41.98;93907.69;5123540;28;20027;-76
2022/08/02 06:26:17;;;;;;;4.43;2.08;;;;;;;20.54;41.78;93896.84;5123481;28;20034;-75
2022/08/02 06:28:44;;;;;;;6.75;2.83;;;;;;;20.59;41.78;93905.41;5123442;28;20027;-75
2022/08/02 06:31:12;;;;;;;5.72;1.33;;;;;;;20.68;42.09;93899.69;5123377;28;20024;-75
2022/08/02 06:33:38;;;;;;;3.90;1.48;;;;;;;20.59;42.53;93902.69;5123557;28;20070;-75
2022/08/02 06:36:27;;;;;;;10.05;1.83;;;;;;;20.68;42.29;93909.72;5122522;28;20019;-75
2022/08/02 06:39:03;;;;;;;2.90;1.63;;;;;;;20.66;42.65;93907.41;5123355;28;20011;-75
2022/08/02 06:41:40;;;;;;;3.50;1.52;;;;;;;20.64;42.93;93920.53;5123414;28;20144;-75
2022/08/02 06:44:06;;;;;;;3.10;1.58;;;;;;;20.74;42.07;93919.03;5123241;28;20259;-75
2022/08/02 06:46:32;;;;;;;3.85;1.45;;;;;;;20.74;42.25;93913.63;5123498;28;20060;-75
2022/08/02 06:48:59;;;;;;;5.70;1.40;;;;;;;20.80;43.22;93912.13;5123505;28;20023;-75
2022/08/02 06:51:25;;;;;;;2.40;1.25;;;;;;;20.84;42.41;93912.94;5123321;28;20027;-76
2022/08/02 06:53:50;;;;;;;1.70;0.90;;;;;;;20.74;42.76;93909.00;5123139;28;20023;-75
2022/08/02 06:56:15;;;;;;;5.78;1.15;;;;;;;20.87;43.89;93911.41;5123297;28;20019;-75
2022/08/02 06:58:41;;;;;;;3.00;1.25;;;;;;;20.96;41.86;93907.19;5123251;28;20273;-75
2022/08/02 07:01:08;;;;;;;4.03;1.40;;;;;;;21.03;42.79;93914.63;5123078;28;20326;-75
2022/08/02 07:03:34;;;;;;;5.28;1.30;;;;;;;21.06;43.03;93911.13;5122977;28;20027;-75
2022/08/02 07:06:00;;;;;;;6.03;1.42;;;;;;;21.01;44.01;93917.69;5123009;28;20026;-75
2022/08/02 07:08:31;;;;;;;3.30;1.45;;;;;;;21.03;44.09;93904.53;5122919;28;20023;-75
2022/08/02 07:11:02;;;;;;;2.63;1.27;;;;;;;21.13;42.94;93896.88;5123163;28;20121;-75
2022/08/02 07:13:28;;;;;;;4.50;1.90;;;;;;;21.20;43.31;93905.03;5123135;28;20094;-75
2022/08/02 07:15:54;;;;;;;2.35;1.10;;;;;;;21.15;43.09;93905.41;5123063;28;20045;-75
2022/08/02 07:18:21;;;;;;;2.63;1.05;;;;;;;21.19;42.31;93898.06;5122794;28;20134;-76
2022/08/02 07:20:47;;;;;;;6.18;1.10;;;;;;;21.23;43.02;93904.28;5122894;28;20068;-75
2022/08/02 07:23:13;;;;;;;1.98;1.30;;;;;;;21.17;43.29;93909.28;5122906;28;20027;-75
2022/08/02 07:25:40;;;;;;;5.47;1.42;;;;;;;21.30;44.81;93900.81;5122697;28;20027;-75
2022/08/02 07:28:05;;;;;;;2.60;1.50;;;;;;;21.36;43.39;93908.19;5122766;28;20019;-75
2022/08/02 07:30:31;;;;;;;5.05;1.50;;;;;;;21.54;41.77;93896.69;5122839;28;20034;-75
2022/08/02 07:32:59;;;;;;;2.28;1.00;;;;;;;21.56;42.59;93905.22;5122791;28;20061;-75
2022/08/02 07:35:25;;;;;;;1.30;0.90;;;;;;;21.57;42.77;93895.91;5122772;28;20020;-75
2022/08/02 07:37:50;;;;;;;4.20;1.20;;;;;;;21.67;41.23;93906.03;5122532;28;20060;-75
2022/08/02 07:40:16;;;;;;;2.65;1.20;;;;;;;21.72;41.58;93900.25;5122755;28;20023;-75
2022/08/02 07:42:43;;;;;;;3.40;1.27;;;;;;;21.75;41.56;93894.03;5122723;28;20086;-75
2022/08/02 07:45:09;;;;;;;1.60;1.10;;;;;;;21.77;41.88;93894.44;5122582;28;20020;-75
2022/08/02 07:47:39;;;;;;;1.90;1.10;;;;;;;21.83;42.11;93889.41;5123553;28;20041;-75
2022/08/02 07:50:06;;;;;;;2.60;1.10;;;;;;;21.98;41.51;93898.34;5126524;27;20069;-75
2022/08/02 07:52:32;;;;;;;2.85;1.33;;;;;;;21.98;41.88;93890.22;5126231;28;20027;-75
2022/08/02 07:54:57;;;;;;;3.80;1.25;;;;;;;21.98;42.41;93892.94;5126571;27;20086;-75
2022/08/02 07:57:22;;;;;;;1.60;0.88;;;;;;;22.01;42.05;93889.47;5126171;28;20019;-75
2022/08/02 07:59:49;;;;;;;3.22;1.27;;;;;;;22.07;41.68;93887.91;5126360;28;20038;-75
2022/08/02 08:02:14;;;;;;;1.48;0.88;;;;;;;22.20;41.75;93894.50;5126179;28;20019;-75
2022/08/02 08:04:40;;;;;;;1.90;1.13;;;;;;;22.21;41.13;93893.38;5126256;28;20021;-75
2022/08/02 08:07:08;;;;;;;5.13;1.02;;;;;;;22.26;42.17;93888.75;5126168;28;20086;-75
2022/08/02 08:09:40;;;;;;;5.43;1.15;;;;;;;22.37;40.40;93889.53;5126115;28;20023;-75
2022/08/02 08:12:06;;;;;;;4.63;1.15;;;;;;;22.49;39.43;93897.31;5126185;27;20199;-76
2022/08/02 08:14:32;;;;;;;3.22;0.88;;;;;;;22.57;39.40;93888.00;5126029;27;20120;-75
2022/08/02 08:16:57;;;;;;;1.80;1.13;;;;;;;22.64;40.13;93893.41;5125671;28;20119;-75
2022/08/02 08:19:23;;;;;;;2.70;1.10;;;;;;;22.62;40.39;93895.75;5125836;28;20022;-75
2022/08/02 08:21:48;;;;;;;4.18;1.05;;;;;;;22.57;41.33;93893.41;5126017;28;20024;-75
2022/08/02 08:24:14;;;;;;;1.55;1.02;;;;;;;22.55;40.38;93887.59;5125781;28;20333;-75
2022/08/02 08:26:39;;;;;;;2.58;1.10;;;;;;;22.54;40.13;93896.13;5125566;27;20023;-75
2022/08/02 08:29:06;;;;;;;3.33;1.20;;;;;;;22.54;40.90;93887.97;5125449;28;20077;-76
2022/08/02 08:31:35;;;;;;;2.13;1.15;;;;;;;22.68;39.96;93887.97;5125614;28;20027;-76
2022/08/02 08:34:00;;;;;;;6.60;1.35;;;;;;;22.81;39.83;93891.06;5125607;28;20298;-75
2022/08/02 08:36:27;;;;;;;3.00;1.30;;;;;;;22.95;39.53;93885.59;5125577;28;20019;-75
2022/08/02 08:38:53;;;;;;;9.20;1.25;;;;;;;23.13;39.48;93891.03;5125283;28;20299;-75
2022/08/02 08:41:19;;;;;;;3.45;0.93;;;;;;;23.25;37.92;93881.69;5125412;28;20023;-76
2022/08/02 08:43:46;;;;;;;1.80;0.77;;;;;;;23.36;37.92;93887.84;5125459;27;20071;-75
2022/08/02 08:46:22;;;;;;;1.88;1.02;;;;;;;23.48;37.70;93894.03;5125111;28;20023;-75
2022/08/02 08:48:49;;;;;;;2.08;1.05;;;;;;;23.59;37.37;93886.59;5124978;28;20039;-75
2022/08/02 08:51:19;;;;;;;3.78;1.00;;;;;;;23.61;37.01;93889.69;5125247;28;20042;-75
2022/08/02 08:53:48;;;;;;;3.95;0.95;;;;;;;23.62;37.89;93885.81;5125128;28;20053;-74
2022/08/02 08:56:15;;;;;;;5.10;1.25;;;;;;;23.64;37.12;93881.53;5125166;28;20222;-75
2022/08/02 08:58:42;;;;;;;5.40;1.20;;;;;;;23.69;37.75;93885.00;5124288;28;20027;-75
2022/08/02 09:01:08;;;;;;;2.33;1.08;;;;;;;23.78;38.06;93891.59;5124455;28;20020;-75
2022/08/02 09:03:34;;;;;;;4.30;1.10;;;;;;;23.91;36.80;93888.44;5124841;28;20112;-75
2022/08/02 09:05:59;;;;;;;3.83;1.38;;;;;;;24.10;35.79;93898.84;5125065;28;20019;-75
2022/08/02 09:08:25;;;;;;;1.88;0.90;;;;;;;24.15;35.23;93892.94;5124600;28;20072;-76
2022/08/02 09:10:50;;;;;;;1.50;0.98;;;;;;;24.23;34.94;93889.00;5124740;28;20035;-75
2022/08/02 09:13:17;;;;;;;2.47;1.20;;;;;;;24.33;36.52;93887.38;5124641;27;20019;-75
2022/08/02 09:15:51;;;;;;;2.13;1.15;;;;;;;24.40;36.12;93889.28;5124744;28;20027;-75
2022/08/02 09:18:17;;;;;;;2.33;1.08;;;;;;;24.42;35.76;93895.09;5124476;28;20051;-76
2022/08/02 09:20:57;;;;;;;2.00;1.17;;;;;;;24.46;35.47;93895.84;5124493;28;20065;-76
2022/08/02 09:23:23;;;;;;;5.45;1.20;;;;;;;24.45;35.64;93897.03;5124413;28;20031;-76
2022/08/02 09:25:59;;;;;;;2.40;0.98;;;;;;;24.40;34.72;93892.78;5124468;28;20027;-76
2022/08/02 09:28:29;;;;;;;8.20;0.80;;;;;;;24.49;34.39;93891.56;5124464;27;20020;-76
2022/08/02 09:31:19;;;;;;;1.83;0.98;;;;;;;24.49;35.42;93889.59;5124456;28;20218;-76
2022/08/02 09:33:50;;;;;;;5.78;1.17;;;;;;;24.52;34.58;93890.78;5121420;28;20077;-76
2022/08/02 09:36:16;;;;;;;4.30;1.20;;;;;;;24.50;34.45;93891.19;5123883;28;20225;-76
2022/08/02 09:39:03;;;;;;;1.77;1.08;;;;;;;24.53;34.27;93878.72;5124391;28;20019;-76
2022/08/02 09:41:31;;;;;;;2.20;0.90;;;;;;;24.51;34.92;93879.13;5124534;28;20264;-76
2022/08/02 09:43:58;;;;;;;2.25;0.98;;;;;;;24.59;35.21;93888.78;5124270;28;20065;-76
2022/08/02 09:46:26;;;;;;;1.52;0.65;;;;;;;24.63;32.22;93891.47;5124125;28;20019;-76
2022/08/02 09:48:56;;;;;;;2.80;0.60;;;;;;;24.59;32.59;93880.59;5123818;28;20251;-76
2022/08/02 09:51:23;;;;;;;3.53;0.68;;;;;;;24.58;33.14;93876.31;5124018;28;20027;-76
2022/08/02 09:53:52;;;;;;;2.03;0.70;;;;;;;24.57;33.31;93872.06;5123986;28;20043;-76
2022/08/02 09:56:19;;;;;;;5.90;0.90;;;;;;;24.57;32.96;93874.78;5123893;28;20019;-76
2022/08/02 09:58:45;;;;;;;1.20;0.63;;;;;;;24.61;32.27;93861.91;5123671;28;20082;-76
2022/08/02 10:01:10;;;;;;;2.72;1.25;;;;;;;24.60;32.86;93873.19;5123867;28;20023;-76
2022/08/02 10:03:36;;;;;;;9.38;1.40;;;;;;;24.71;34.40;93870.38;5123981;28;20064;-76
2022/08/02 10:06:03;;;;;;;1.52;0.75;;;;;;;24.86;34.82;93860.91;5124023;28;20019;-76
2022/08/02 10:08:29;;;;;;;5.07;0.90;;;;;;;25.01;34.66;93854.13;5123563;28;20050;-76
2022/08/02 10:11:02;;;;;;;1.23;0.70;;;;;;;25.09;33.88;93851.31;5123582;28;20072;-76
2022/08/02 10:13:31;;;;;;;2.65;0.90;;;;;;;25.26;33.70;93861.31;5123526;28;20027;-77
2022/08/02 10:15:57;;;;;;;3.42;0.93;;;;;;;25.39;34.14;93867.75;5123591;28;20262;-76
2022/08/02 10:18:23;;;;;;;2.15;1.08;;;;;;;25.49;34.51;93862.59;5123543;28;20039;-76
2022/08/02 10:20:50;;;;;;;1.85;0.90;;;;;;;25.60;34.44;93858.56;5123675;28;20056;-76
2022/08/02 10:23:16;;;;;;;2.03;1.00;;;;;;;25.75;33.02;93859.13;5123576;28;20027;-77
2022/08/02 10:25:45;;;;;;;3.17;0.80;;;;;;;25.83;32.16;93857.09;5123411;28;20020;-75
2022/08/02 10:28:15;;;;;;;1.70;1.08;;;;;;;25.90;32.50;93856.25;5123303;28;20024;-76
2022/08/02 10:30:44;;;;;;;1.90;1.20;;;;;;;25.85;32.81;93856.66;5123552;27;20019;-76
2022/08/02 10:33:11;;;;;;;3.47;0.80;;;;;;;25.85;33.85;93851.19;5123437;28;20031;-76
2022/08/02 10:35:38;;;;;;;1.92;0.90;;;;;;;26.00;32.89;93852.59;5123263;28;20047;-76
2022/08/02 10:38:06;;;;;;;1.52;0.80;;;;;;;26.14;32.49;93852.38;5123456;28;20031;-76
2022/08/02 10:40:52;;;;;;;1.38;0.70;;;;;;;26.21;33.02;93849.53;5123498;28;20023;-76
2022/08/02 10:43:30;;;;;;;3.25;1.08;;;;;;;26.32;32.87;93854.09;5123192;28;20223;-77
2022/08/02 10:46:32;;;;;;;1.23;0.77;;;;;;;26.40;31.21;93858.25;5123175;28;20035;-77
2022/08/02 10:49:08;;;;;;;2.88;0.90;;;;;;;26.43;32.42;93852.72;5123159;28;20083;-77
2022/08/02 10:52:01;;;;;;;2.40;0.90;;;;;;;26.68;32.19;93846.09;5123317;28;20306;-76
2022/08/02 10:54:31;;;;;;;2.25;0.77;;;;;;;26.65;32.03;93843.44;5123176;28;20032;-76
2022/08/02 10:56:58;;;;;;;2.92;1.00;;;;;;;26.76;32.20;93844.00;5123270;28;20031;-77
2022/08/02 10:59:34;;;;;;;2.92;1.20;;;;;;;26.94;33.04;93839.00;5123101;28;20140;-77
2022/08/02 11:02:01;;;;;;;9.05;1.30;;;;;;;27.18;33.11;93852.63;5123054;28;20038;-77
2022/08/02 11:04:46;;;;;;;15.20;1.45;;;;;;;27.48;32.03;93839.97;5122815;28;20035;-77
2022/08/02 11:07:13;;;;;;;1.95;1.05;;;;;;;27.67;31.51;93841.91;5119026;28;20036;-76
2022/08/02 11:09:40;;;;;;;2.60;1.27;;;;;;;27.84;30.83;93842.72;5122924;28;20031;-75
2022/08/02 11:12:12;;;;;;;2.15;1.10;;;;;;;27.98;30.96;93841.69;5122968;28;20318;-75
2022/08/02 11:14:43;;;;;;;2.33;1.00;;;;;;;28.10;30.67;93846.50;5122884;28;20030;-75
2022/08/02 11:17:17;;;;;;;6.18;0.90;;;;;;;28.25;30.60;93848.91;5122759;28;20050;-75
2022/08/02 11:20:19;;;;;;;3.08;1.02;;;;;;;28.31;28.84;93842.50;5122862;28;20089;-75
2022/08/02 11:22:46;;;;;;;;;;;;;;;28.27;28.14;93839.06;5102293;28;20020;-75
2022/08/02 11:25:23;;;;;;;4.93;1.10;;;;;;;28.21;29.74;93838.00;5122402;28;19956;-76
2022/08/02 11:28:07;;;;;;;2.17;0.80;;;;;;;28.30;29.14;93845.66;5127002;28;20095;-77
2022/08/02 11:30:32;;;;;;;3.38;0.73;;;;;;;28.49;29.29;93844.03;5126801;28;20028;-77
2022/08/02 11:32:59;;;;;;;2.55;1.08;;;;;;;28.70;29.15;93845.50;5126742;28;20076;-77
2022/08/02 11:35:34;;;;;;;1.98;0.80;;;;;;;28.94;29.21;93833.16;5126839;28;20047;-76
2022/08/02 11:38:13;;;;;;;1.92;0.95;;;;;;;29.23;29.67;93840.66;5126730;28;20268;-77
2022/08/02 11:40:38;;;;;;;0.82;0.63;;;;;;;29.30;27.45;93826.72;5126545;28;20076;-77
2022/08/02 11:43:14;;;;;;;2.75;0.88;;;;;;;29.42;27.81;93843.66;5126815;28;20027;-75